createdAt,value
2018-04-13T00:02:18.965Z,10.60
2018-04-13T00:04:47.336Z,11.20
2018-04-13T00:07:14.983Z,11.65
2018-04-13T00:09:42.608Z,11.73
2018-04-13T00:12:10.225Z,11.55
2018-04-13T00:14:37.885Z,11.37
2018-04-13T00:17:05.633Z,11.95
2018-04-13T00:19:33.274Z,12.20
2018-04-13T00:22:00.895Z,11.05
2018-04-13T00:24:29.359Z,11.98
2018-04-13T00:26:56.960Z,11.38
2018-04-13T00:29:24.688Z,11.25
2018-04-13T00:31:52.331Z,11.13
2018-04-13T00:34:19.988Z,11.73
2018-04-13T00:36:47.663Z,11.30
2018-04-13T00:39:15.318Z,11.15
2018-04-13T00:41:43.782Z,11.30
2018-04-13T00:44:11.763Z,11.70
2018-04-13T00:46:40.156Z,11.40
2018-04-13T00:49:08.878Z,11.00
2018-04-13T00:51:36.497Z,11.38
2018-04-13T00:54:04.155Z,11.47
2018-04-13T00:56:31.799Z,12.05
2018-04-13T00:58:59.949Z,11.82
2018-04-13T01:01:27.669Z,11.57
2018-04-13T01:03:55.298Z,11.73
2018-04-13T01:06:22.978Z,11.23
2018-04-13T01:08:50.645Z,11.17
2018-04-13T01:11:18.299Z,11.98
2018-04-13T01:13:46.530Z,11.25
2018-04-13T01:16:15.058Z,12.32
2018-04-13T01:18:42.727Z,11.25
2018-04-13T01:21:10.440Z,12.15
2018-04-13T01:23:38.084Z,12.55
2018-04-13T01:26:05.721Z,12.50
2018-04-13T01:28:34.271Z,11.20
2018-04-13T01:31:02.744Z,11.85
2018-04-13T01:33:30.363Z,11.27
2018-04-13T01:35:58.001Z,11.65
2018-04-13T01:38:26.478Z,11.87
2018-04-13T01:40:54.943Z,11.48
2018-04-13T01:43:22.620Z,11.48
2018-04-13T01:45:51.181Z,11.02
2018-04-13T01:48:18.825Z,11.43
2018-04-13T01:50:47.047Z,11.38
2018-04-13T01:53:14.709Z,11.55
2018-04-13T01:55:42.394Z,11.77
2018-04-13T01:58:10.807Z,11.05
2018-04-13T02:00:39.221Z,11.12
2018-04-13T02:03:07.646Z,11.07
2018-04-13T02:05:35.361Z,11.10
2018-04-13T02:08:02.992Z,11.45
2018-04-13T02:10:31.398Z,11.73
2018-04-13T02:12:59.017Z,10.88
2018-04-13T02:15:27.259Z,11.37
2018-04-13T02:17:54.903Z,11.43
2018-04-13T02:20:22.557Z,11.12
2018-04-13T02:22:51.676Z,10.90
2018-04-13T02:25:19.324Z,11.38
2018-04-13T02:27:47.751Z,11.95
2018-04-13T02:30:15.393Z,11.63
2018-04-13T02:32:43.027Z,10.60
2018-04-13T02:35:10.688Z,11.40
2018-04-13T02:37:38.345Z,11.80
2018-04-13T02:40:06.691Z,11.55
2018-04-13T02:42:34.659Z,10.27
2018-04-13T02:45:02.939Z,12.00
2018-04-13T02:47:30.572Z,11.35
2018-04-13T02:49:59.010Z,11.25
2018-04-13T02:52:26.640Z,11.88
2018-04-13T02:54:54.294Z,12.20
2018-04-13T02:57:22.678Z,11.77
2018-04-13T02:59:52.793Z,11.93
2018-04-13T03:02:20.439Z,11.55
2018-04-13T03:04:48.385Z,11.33
2018-04-13T03:07:16.823Z,11.60
2018-04-13T03:09:45.228Z,11.85
2018-04-13T03:12:13.714Z,11.60
2018-04-13T03:14:42.147Z,11.67
2018-04-13T03:17:09.781Z,12.20
2018-04-13T03:19:37.444Z,10.87
2018-04-13T03:22:05.061Z,11.63
2018-04-13T03:24:33.459Z,12.02
2018-04-13T03:27:01.961Z,11.73
2018-04-13T03:29:29.628Z,11.87
2018-04-13T03:31:58.107Z,11.23
2018-04-13T03:34:26.531Z,11.63
2018-04-13T03:36:54.183Z,11.98
2018-04-13T03:39:21.852Z,12.10
2018-04-13T03:41:49.492Z,11.70
2018-04-13T03:44:17.922Z,12.55
2018-04-13T03:46:45.538Z,12.05
2018-04-13T03:49:14.599Z,12.02
2018-04-13T03:51:42.271Z,11.73
2018-04-13T03:54:10.214Z,11.18
2018-04-13T03:56:37.871Z,11.82
2018-04-13T03:59:06.427Z,11.45
2018-04-13T04:01:34.884Z,12.30
2018-04-13T04:04:02.552Z,12.20
2018-04-13T04:06:30.982Z,11.77
2018-04-13T04:08:59.413Z,11.57
2018-04-13T04:11:27.042Z,11.73
2018-04-13T04:13:54.702Z,12.00
2018-04-13T04:16:22.362Z,12.00
2018-04-13T04:18:51.291Z,11.93
2018-04-13T04:21:30.901Z,11.68
2018-04-13T04:24:11.116Z,11.07
2018-04-13T04:26:50.683Z,11.55
2018-04-13T04:29:19.100Z,11.18
2018-04-13T04:31:46.757Z,11.90
2018-04-13T04:34:15.560Z,11.12
2018-04-13T04:36:43.242Z,12.27
2018-04-13T04:39:10.908Z,12.02
2018-04-13T04:41:38.592Z,11.73
2018-04-13T04:44:06.249Z,11.98
2018-04-13T04:46:33.893Z,11.45
2018-04-13T04:49:01.564Z,11.97
2018-04-13T04:51:29.781Z,11.07
2018-04-13T04:53:57.451Z,11.65
2018-04-13T04:56:25.921Z,11.70
2018-04-13T04:58:53.583Z,11.55
2018-04-13T05:01:21.293Z,11.30
2018-04-13T05:03:48.958Z,11.00
2018-04-13T05:06:17.399Z,11.30
2018-04-13T05:08:45.256Z,10.53
2018-04-13T05:11:12.885Z,11.02
2018-04-13T05:13:40.595Z,11.35
2018-04-13T05:16:11.076Z,11.07
2018-04-13T05:18:38.886Z,11.70
2018-04-13T05:21:06.516Z,9.73
2018-04-13T05:23:34.193Z,11.52
2018-04-13T05:26:02.654Z,11.18
2018-04-13T05:28:30.328Z,10.30
2018-04-13T05:30:58.163Z,11.23
2018-04-13T05:33:26.128Z,11.43
2018-04-13T05:35:53.845Z,10.77
2018-04-13T05:38:21.513Z,9.60
2018-04-13T05:40:49.206Z,10.07
2018-04-13T05:43:16.836Z,10.93
2018-04-13T05:45:45.129Z,10.50
2018-04-13T05:48:13.612Z,9.50
2018-04-13T05:50:41.261Z,10.07
2018-04-13T05:53:08.882Z,9.80
2018-04-13T05:55:36.631Z,9.55
2018-04-13T05:58:04.247Z,9.68
2018-04-13T06:00:31.850Z,9.00
2018-04-13T06:03:00.251Z,9.43
2018-04-13T06:05:27.912Z,9.60
2018-04-13T06:07:56.562Z,9.20
2018-04-13T06:10:24.194Z,9.55
2018-04-13T06:12:51.851Z,8.57
2018-04-13T06:15:19.509Z,8.75
2018-04-13T06:17:48.006Z,8.45
2018-04-13T06:20:15.680Z,8.63
2018-04-13T06:22:43.318Z,8.32
2018-04-13T06:25:11.849Z,8.32
2018-04-13T06:27:39.513Z,8.48
2018-04-13T06:30:07.238Z,8.18
2018-04-13T06:32:35.673Z,7.72
2018-04-13T06:35:03.318Z,8.13
2018-04-13T06:37:31.357Z,8.23
2018-04-13T06:39:59.074Z,8.30
2018-04-13T06:42:26.718Z,8.95
2018-04-13T06:44:56.569Z,8.65
2018-04-13T06:47:24.743Z,9.30
2018-04-13T06:49:52.360Z,9.50
2018-04-13T06:52:20.787Z,9.07
2018-04-13T06:54:48.445Z,8.32
2018-04-13T06:57:16.102Z,9.02
2018-04-13T06:59:43.768Z,8.68
2018-04-13T07:02:11.433Z,9.18
2018-04-13T07:04:39.108Z,9.30
2018-04-13T07:07:06.814Z,9.07
2018-04-13T07:09:35.315Z,9.60
2018-04-13T07:12:02.948Z,8.65
2018-04-13T07:14:30.684Z,8.73
2018-04-13T07:16:58.361Z,8.65
2018-04-13T07:19:26.027Z,8.90
2018-04-13T07:21:53.819Z,8.63
2018-04-13T07:24:21.555Z,9.10
2018-04-13T07:26:49.232Z,8.43
2018-04-13T07:29:17.230Z,8.73
2018-04-13T07:31:45.197Z,8.85
2018-04-13T07:34:12.587Z,9.05
2018-04-13T07:36:40.210Z,8.57
2018-04-13T07:39:07.835Z,9.15
2018-04-13T07:41:36.257Z,8.85
2018-04-13T07:44:03.892Z,8.48
2018-04-13T07:46:31.653Z,9.82
2018-04-13T07:48:59.272Z,8.57
2018-04-13T07:51:27.129Z,8.10
2018-04-13T07:53:54.683Z,8.27
2018-04-13T07:56:23.119Z,8.30
2018-04-13T07:58:50.784Z,8.35
2018-04-13T08:01:18.415Z,9.18
2018-04-13T08:03:46.406Z,9.87
2018-04-13T08:06:14.060Z,8.88
2018-04-13T08:08:41.719Z,9.00
2018-04-13T08:11:09.342Z,9.13
2018-04-13T08:13:37.758Z,9.50
2018-04-13T08:16:05.405Z,9.23
2018-04-13T08:18:33.931Z,9.07
2018-04-13T08:21:01.934Z,9.07
2018-04-13T08:23:29.594Z,8.90
2018-04-13T08:25:57.220Z,9.75
2018-04-13T08:28:24.931Z,9.30
2018-04-13T08:30:52.908Z,9.85
2018-04-13T08:33:21.272Z,9.40
2018-04-13T08:35:48.930Z,9.02
2018-04-13T08:38:17.383Z,10.03
2018-04-13T08:40:46.507Z,9.40
2018-04-13T08:43:15.605Z,9.07
2018-04-13T08:45:43.228Z,9.30
2018-04-13T08:48:11.709Z,8.90
2018-04-13T08:50:39.389Z,9.90
2018-04-13T08:53:07.019Z,10.27
2018-04-13T08:55:34.691Z,9.40
2018-04-13T08:58:02.556Z,10.25
2018-04-13T09:00:30.183Z,8.90
2018-04-13T09:02:58.671Z,9.60
2018-04-13T09:05:27.525Z,9.85
2018-04-13T09:07:55.186Z,9.27
2018-04-13T09:10:23.775Z,10.00
2018-04-13T09:12:51.437Z,10.50
2018-04-13T09:15:19.097Z,9.68
2018-04-13T09:17:47.782Z,9.88
2018-04-13T09:20:15.503Z,9.97
2018-04-13T09:22:43.931Z,9.63
2018-04-13T09:25:11.594Z,10.38
2018-04-13T09:27:39.226Z,10.20
2018-04-13T09:30:07.662Z,10.43
2018-04-13T09:32:35.327Z,10.40
2018-04-13T09:35:02.978Z,11.07
2018-04-13T09:37:30.653Z,11.12
2018-04-13T09:39:58.314Z,11.63
2018-04-13T09:42:26.015Z,11.35
2018-04-13T09:44:54.737Z,11.52
2018-04-13T09:47:23.231Z,10.82
2018-04-13T09:49:51.553Z,11.40
2018-04-13T09:52:19.325Z,11.32
2018-04-13T09:54:47.121Z,11.70
2018-04-13T09:57:16.361Z,10.70
2018-04-13T09:59:44.185Z,11.80
2018-04-13T10:02:17.656Z,11.40
2018-04-13T10:04:45.378Z,11.27
2018-04-13T10:07:13.824Z,11.77
2018-04-13T10:09:41.515Z,11.95
2018-04-13T10:12:09.923Z,11.45
2018-04-13T10:14:38.391Z,11.95
2018-04-13T10:17:06.051Z,11.93
2018-04-13T10:19:34.490Z,12.05
2018-04-13T10:22:02.300Z,11.68
2018-04-13T10:24:29.976Z,11.55
2018-04-13T10:26:57.633Z,11.40
2018-04-13T10:29:26.836Z,11.48
2018-04-13T10:31:55.316Z,11.57
2018-04-13T10:34:22.977Z,11.63
2018-04-13T10:36:50.654Z,12.25
2018-04-13T10:39:19.982Z,11.07
2018-04-13T10:41:47.705Z,11.68
2018-04-13T10:44:15.389Z,11.98
2018-04-13T10:46:43.103Z,11.85
2018-04-13T10:49:10.814Z,11.43
2018-04-13T10:51:38.500Z,11.95
2018-04-13T10:54:06.323Z,11.12
2018-04-13T10:56:33.989Z,11.25
2018-04-13T10:59:01.835Z,11.43
2018-04-13T11:01:30.302Z,11.40
2018-04-13T11:03:57.990Z,11.65
2018-04-13T11:06:25.783Z,11.80
2018-04-13T11:08:54.314Z,11.90
2018-04-13T11:11:22.949Z,10.90
2018-04-13T11:13:50.665Z,11.57
2018-04-13T11:16:18.358Z,11.27
2018-04-13T11:18:46.828Z,11.52
2018-04-13T11:21:14.521Z,11.43
2018-04-13T11:23:42.242Z,11.60
2018-04-13T11:26:10.765Z,10.57
2018-04-13T11:28:38.483Z,9.75
2018-04-13T11:31:06.139Z,9.13
2018-04-13T11:33:33.914Z,9.98
2018-04-13T11:36:01.568Z,8.55
2018-04-13T11:38:29.979Z,8.98
2018-04-13T11:40:57.735Z,8.10
2018-04-13T11:43:25.429Z,7.87
2018-04-13T11:45:53.633Z,7.95
2018-04-13T11:48:21.775Z,7.30
2018-04-13T11:50:49.483Z,7.35
2018-04-13T11:53:17.220Z,6.68
2018-04-13T11:55:44.901Z,6.22
2018-04-13T11:58:12.561Z,5.93
2018-04-13T12:00:40.565Z,6.22
2018-04-13T12:03:10.811Z,5.45
2018-04-13T12:05:40.527Z,5.45
2018-04-13T12:08:09.458Z,5.15
2018-04-13T12:10:37.159Z,4.72
2018-04-13T12:13:04.829Z,4.68
2018-04-13T12:15:34.953Z,5.05
2018-04-13T12:18:02.595Z,5.10
2018-04-13T12:20:30.896Z,4.50
2018-04-13T12:22:59.372Z,4.40
2018-04-13T12:25:27.037Z,3.60
2018-04-13T12:27:54.682Z,3.97
2018-04-13T12:30:22.400Z,3.60
2018-04-13T12:32:50.063Z,3.60
2018-04-13T12:35:18.425Z,3.62
2018-04-13T12:37:46.756Z,3.50
2018-04-13T12:40:14.374Z,3.20
2018-04-13T12:42:42.011Z,3.12
2018-04-13T12:45:10.655Z,2.83
2018-04-13T12:47:39.105Z,3.27
2018-04-13T12:50:07.404Z,2.65
2018-04-13T12:52:35.100Z,3.03
2018-04-13T12:55:03.756Z,2.90
2018-04-13T12:57:31.805Z,2.80
2018-04-13T13:00:00.278Z,2.58
2018-04-13T13:02:27.938Z,2.45
2018-04-13T13:04:55.631Z,2.83
2018-04-13T13:07:24.229Z,2.20
2018-04-13T13:09:51.887Z,2.58
2018-04-13T13:12:19.535Z,2.60
2018-04-13T13:14:47.149Z,2.03
2018-04-13T13:17:14.873Z,2.27
2018-04-13T13:19:42.536Z,2.40
2018-04-13T13:22:11.052Z,2.30
2018-04-13T13:24:38.675Z,1.90
2018-04-13T13:27:07.133Z,2.17
2018-04-13T13:29:34.823Z,1.98
2018-04-13T13:32:02.496Z,1.98
2018-04-13T13:34:30.921Z,1.90
2018-04-13T13:36:58.664Z,2.20
2018-04-13T13:39:27.197Z,2.00
2018-04-13T13:41:55.407Z,1.70
2018-04-13T13:44:23.952Z,1.75
2018-04-13T13:46:51.574Z,1.58
2018-04-13T13:49:19.484Z,1.80
2018-04-13T13:51:47.931Z,1.60
2018-04-13T13:54:15.611Z,1.50
2018-04-13T13:56:43.332Z,1.70
2018-04-13T13:59:11.796Z,1.65
2018-04-13T14:01:39.437Z,1.48
2018-04-13T14:04:07.885Z,1.70
2018-04-13T14:31:26.637Z,1.62
2018-04-13T14:33:55.822Z,1.80
2018-04-13T14:36:23.560Z,1.50
2018-04-13T14:38:51.221Z,1.40
2018-04-13T14:41:19.336Z,1.40
2018-04-13T14:43:47.745Z,1.33
2018-04-13T14:46:15.422Z,1.90
2018-04-13T14:48:44.084Z,1.37
2018-04-13T14:51:12.569Z,1.60
2018-04-13T14:53:40.577Z,1.48
2018-04-13T14:56:08.294Z,1.30
2018-04-13T14:58:36.754Z,1.30
2018-04-13T15:01:04.441Z,1.60
2018-04-13T15:03:32.949Z,1.70
2018-04-13T15:06:01.230Z,1.67
2018-04-13T15:08:28.962Z,1.23
2018-04-13T15:10:59.592Z,1.10
2018-04-13T15:13:29.064Z,1.60
2018-04-13T15:15:57.764Z,1.20
2018-04-13T15:18:27.160Z,1.20
2018-04-13T15:20:56.141Z,1.20
2018-04-13T15:23:23.890Z,1.40
2018-04-13T15:25:51.502Z,1.40
2018-04-13T15:28:19.200Z,1.27
2018-04-13T15:30:46.837Z,1.27
2018-04-13T15:33:15.346Z,1.45
2018-04-13T15:35:43.002Z,1.30
2018-04-13T15:38:10.698Z,1.35
2018-04-13T15:40:38.303Z,1.30
2018-04-13T15:43:06.005Z,1.58
2018-04-13T15:45:33.649Z,1.50
2018-04-13T15:48:03.510Z,1.48
2018-04-13T15:50:31.320Z,1.45
2018-04-13T15:53:00.106Z,1.42
2018-04-13T15:55:29.221Z,1.35
2018-04-13T15:57:57.008Z,1.20
2018-04-13T16:00:24.712Z,1.30
2018-04-13T16:02:52.392Z,1.37
2018-04-13T16:05:23.798Z,1.40
2018-04-13T16:07:51.568Z,1.30
2018-04-13T16:10:19.221Z,1.20
2018-04-13T16:12:47.639Z,1.33
2018-04-13T16:15:15.346Z,1.37
2018-04-13T16:17:43.002Z,1.35
2018-04-13T16:20:10.641Z,1.20
2018-04-13T16:22:38.988Z,1.35
2018-04-13T16:25:07.379Z,1.42
2018-04-13T16:27:35.102Z,1.12
2018-04-13T16:30:02.763Z,1.33
2018-04-13T16:32:30.435Z,1.30
2018-04-13T16:34:58.128Z,1.30
2018-04-13T16:37:27.421Z,1.30
2018-04-13T16:39:55.976Z,1.50
2018-04-13T16:42:23.613Z,1.40
2018-04-13T16:44:52.748Z,1.40
2018-04-13T16:47:20.415Z,1.37
2018-04-13T16:49:48.031Z,1.40
2018-04-13T16:52:15.756Z,1.12
2018-04-13T16:54:44.367Z,1.50
2018-04-13T16:57:12.094Z,1.25
2018-04-13T16:59:39.777Z,1.40
2018-04-13T17:02:07.655Z,1.70
2018-04-13T17:04:35.383Z,1.48
2018-04-13T17:07:03.257Z,1.50
2018-04-13T17:09:31.170Z,1.40
2018-04-13T17:11:59.734Z,1.52
2018-04-13T17:14:27.554Z,1.50
2018-04-13T17:16:55.844Z,1.35
2018-04-13T17:19:24.302Z,1.62
2018-04-13T17:21:52.020Z,1.48
2018-04-13T17:24:19.841Z,1.58
2018-04-13T17:26:50.699Z,1.90
2018-04-13T17:29:19.337Z,1.42
2018-04-13T17:31:47.036Z,1.57
2018-04-13T17:34:14.698Z,1.80
2018-04-13T17:36:42.386Z,1.67
2018-04-13T17:39:10.782Z,1.67
2018-04-13T17:41:41.219Z,1.75
2018-04-13T17:44:09.668Z,1.55
2018-04-13T17:46:37.336Z,1.73
2018-04-13T17:49:07.629Z,1.83
2018-04-13T17:51:35.595Z,1.70
2018-04-13T17:54:03.270Z,1.77
2018-04-13T17:56:31.081Z,1.65
2018-04-13T17:58:58.713Z,1.80
2018-04-13T18:01:27.843Z,2.05
2018-04-13T18:03:55.533Z,2.05
2018-04-13T18:06:23.945Z,1.80
2018-04-13T18:08:51.954Z,1.92
2018-04-13T18:11:19.651Z,1.70
2018-04-13T18:13:48.084Z,1.70
2018-04-13T18:16:15.722Z,1.40
2018-04-13T18:18:44.466Z,1.30
2018-04-13T18:21:12.217Z,1.37
2018-04-13T18:23:39.903Z,1.20
2018-04-13T18:26:07.626Z,1.10
2018-04-13T18:28:36.195Z,1.20
2018-04-13T18:31:04.685Z,1.10
2018-04-13T18:33:33.138Z,1.27
2018-04-13T18:36:00.798Z,1.15
2018-04-13T18:38:28.531Z,1.10
2018-04-13T18:40:56.146Z,1.20
2018-04-13T18:43:23.848Z,1.13
2018-04-13T18:45:51.466Z,1.20
2018-04-13T18:48:19.160Z,1.20
2018-04-13T18:50:47.662Z,1.12
2018-04-13T18:53:15.354Z,1.40
2018-04-13T18:55:43.068Z,1.30
2018-04-13T18:58:10.797Z,1.35
2018-04-13T19:00:38.412Z,1.27
2018-04-13T19:03:06.105Z,1.30
2018-04-13T19:05:35.298Z,1.20
2018-04-13T19:08:02.958Z,1.27
2018-04-13T19:10:30.571Z,1.65
2018-04-13T19:12:58.218Z,1.25
2018-04-13T19:15:26.666Z,1.25
2018-04-13T19:17:54.334Z,1.27
2018-04-13T19:20:22.081Z,1.25
2018-04-13T19:22:49.732Z,1.30
2018-04-13T19:25:17.407Z,1.30
2018-04-13T19:27:45.062Z,1.40
2018-04-13T19:30:13.507Z,1.30
2018-04-13T19:32:41.214Z,1.40
2018-04-13T19:35:09.438Z,1.77
2018-04-13T19:37:37.094Z,1.52
2018-04-13T19:40:04.756Z,1.30
2018-04-13T19:42:32.490Z,1.90
2018-04-13T19:45:00.901Z,1.50
2018-04-13T19:47:28.576Z,1.60
2018-04-13T19:49:56.464Z,1.70
2018-04-13T19:52:24.160Z,1.73
2018-04-13T19:54:52.610Z,1.90
2018-04-13T19:57:20.222Z,1.83
2018-04-13T19:59:47.945Z,1.70
2018-04-13T20:02:16.456Z,1.90
2018-04-13T20:04:44.109Z,2.20
2018-04-13T20:07:11.804Z,2.30
2018-04-13T20:09:40.225Z,2.20
2018-04-13T20:12:07.904Z,2.13
2018-04-13T20:14:35.570Z,2.20
2018-04-13T20:17:03.737Z,1.90
2018-04-13T20:19:31.372Z,2.20
2018-04-13T20:21:59.791Z,2.10
2018-04-13T20:24:27.454Z,2.05
2018-04-13T20:26:55.123Z,1.95
2018-04-13T20:29:23.656Z,2.20
2018-04-13T20:31:51.327Z,2.20
2018-04-13T20:34:19.021Z,2.10
2018-04-13T20:36:46.666Z,1.80
2018-04-13T20:39:14.307Z,1.80
2018-04-13T20:41:41.932Z,1.95
2018-04-13T20:44:09.581Z,2.05
2018-04-13T20:46:38.007Z,1.95
2018-04-13T20:49:05.736Z,2.03
2018-04-13T20:51:34.176Z,2.20
2018-04-13T20:54:02.038Z,2.00
2018-04-13T20:56:29.706Z,2.15
2018-04-13T20:58:57.793Z,2.08
2018-04-13T21:01:25.917Z,2.12
2018-04-13T21:03:54.429Z,2.15
2018-04-13T21:06:22.122Z,2.10
2018-04-13T21:08:50.598Z,2.20
2018-04-13T21:11:18.371Z,2.05
2018-04-13T21:13:46.070Z,1.92
2018-04-13T21:16:13.742Z,2.00
2018-04-13T21:18:41.513Z,2.40
2018-04-13T21:21:09.185Z,2.28
2018-04-13T21:23:36.806Z,2.70
2018-04-13T21:26:04.528Z,2.50
2018-04-13T21:28:32.391Z,2.35
2018-04-13T21:31:01.577Z,2.53
2018-04-13T21:33:29.220Z,2.50
2018-04-13T21:35:56.909Z,2.92
2018-04-13T21:38:24.565Z,2.75
2018-04-13T21:40:52.232Z,2.80
2018-04-13T21:43:19.915Z,2.80
2018-04-13T21:45:47.641Z,2.87
2018-04-13T21:48:15.292Z,2.62
2018-04-13T21:50:43.670Z,2.57
2018-04-13T21:53:11.349Z,2.55
2018-04-13T21:55:38.987Z,2.67
2018-04-13T21:58:06.619Z,2.70
2018-04-13T22:00:34.375Z,2.60
2018-04-13T22:03:02.034Z,2.50
2018-04-13T22:05:29.743Z,2.47
2018-04-13T22:07:57.399Z,2.60
2018-04-13T22:10:25.011Z,2.40
2018-04-13T22:13:04.439Z,2.65
2018-04-13T22:15:32.830Z,2.80
2018-04-13T22:18:00.506Z,2.97
2018-04-13T22:20:28.160Z,2.77
2018-04-13T22:22:56.644Z,2.92
2018-04-13T22:25:24.302Z,2.92
2018-04-13T22:27:52.694Z,2.72
2018-04-13T22:30:21.127Z,2.80
2018-04-13T22:32:49.502Z,2.45
2018-04-13T22:35:17.171Z,2.92
2018-04-13T22:37:44.807Z,2.90
2018-04-13T22:40:12.504Z,2.70
2018-04-13T22:42:40.165Z,2.35
2018-04-13T22:45:07.830Z,2.50
2018-04-13T22:47:35.515Z,2.00
2018-04-13T22:50:04.272Z,2.05
2018-04-13T22:52:31.908Z,1.62
2018-04-13T22:55:00.342Z,1.90
2018-04-13T22:57:28.005Z,1.80
2018-04-13T22:59:55.668Z,1.60
2018-04-13T23:02:23.358Z,1.73
2018-04-13T23:04:51.124Z,1.50
2018-04-13T23:07:19.501Z,1.70
2018-04-13T23:09:47.127Z,1.80
2018-04-13T23:12:16.231Z,2.00
2018-04-13T23:14:43.885Z,1.80
2018-04-13T23:17:12.367Z,1.75
2018-04-13T23:19:40.011Z,1.87
2018-04-13T23:22:07.683Z,1.92
2018-04-13T23:24:36.854Z,2.00
2018-04-13T23:27:05.284Z,2.10
2018-04-13T23:29:33.736Z,2.10
2018-04-13T23:32:02.143Z,2.10
2018-04-13T23:34:29.861Z,2.22
2018-04-13T23:36:57.529Z,2.00
2018-04-13T23:39:25.155Z,2.22
2018-04-13T23:41:52.780Z,2.05
2018-04-13T23:44:20.401Z,2.00
2018-04-13T23:46:48.950Z,2.10
2018-04-13T23:49:16.566Z,2.00
2018-04-13T23:51:44.223Z,1.80
2018-04-13T23:54:12.602Z,1.92
2018-04-13T23:56:41.021Z,2.00
2018-04-13T23:59:08.640Z,1.90
